sensor_id;sensor_type;location;lat;lon;timestamp;temperature;humidity
59208;DHT22;44977;53.132;6.408;2023-04-25T00:03:24;7.10;99.90
59208;DHT22;44977;53.132;6.408;2023-04-25T00:08:25;7.10;99.90
59208;DHT22;44977;53.132;6.408;2023-04-25T00:13:26;7.10;99.90
59208;DHT22;44977;53.132;6.408;2023-04-25T00:18:27;7.10;99.90
59208;DHT22;44977;53.132;6.408;2023-04-25T00:23:29;7.00;99.90
59208;DHT22;44977;53.132;6.408;2023-04-25T00:28:30;7.10;99.90
59208;DHT22;44977;53.132;6.408;2023-04-25T00:33:31;7.00;99.90
59208;DHT22;44977;53.132;6.408;2023-04-25T00:38:31;7.00;99.90
59208;DHT22;44977;53.132;6.408;2023-04-25T00:43:33;7.00;99.90
59208;DHT22;44977;53.132;6.408;2023-04-25T00:48:34;6.90;99.90
59208;DHT22;44977;53.132;6.408;2023-04-25T00:53:34;6.90;99.90
59208;DHT22;44977;53.132;6.408;2023-04-25T00:58:36;6.80;99.90
59208;DHT22;44977;53.132;6.408;2023-04-25T01:03:38;6.80;99.90
59208;DHT22;44977;53.132;6.408;2023-04-25T01:08:43;6.70;99.90
59208;DHT22;44977;53.132;6.408;2023-04-25T01:13:44;6.70;99.90
59208;DHT22;44977;53.132;6.408;2023-04-25T01:18:45;6.60;99.90
59208;DHT22;44977;53.132;6.408;2023-04-25T01:23:46;6.60;99.90
59208;DHT22;44977;53.132;6.408;2023-04-25T01:28:48;6.60;99.90
59208;DHT22;44977;53.132;6.408;2023-04-25T01:33:49;6.60;99.90
59208;DHT22;44977;53.132;6.408;2023-04-25T01:38:50;6.50;99.90
59208;DHT22;44977;53.132;6.408;2023-04-25T01:43:51;6.50;99.90
59208;DHT22;44977;53.132;6.408;2023-04-25T01:48:52;6.50;99.90
59208;DHT22;44977;53.132;6.408;2023-04-25T01:53:53;6.50;99.90
59208;DHT22;44977;53.132;6.408;2023-04-25T01:58:54;6.50;99.90
59208;DHT22;44977;53.132;6.408;2023-04-25T02:03:55;6.40;99.90
59208;DHT22;44977;53.132;6.408;2023-04-25T02:08:55;6.40;99.90
59208;DHT22;44977;53.132;6.408;2023-04-25T02:13:56;6.40;99.90
59208;DHT22;44977;53.132;6.408;2023-04-25T02:18:57;6.40;99.90
59208;DHT22;44977;53.132;6.408;2023-04-25T02:23:58;6.30;99.90
59208;DHT22;44977;53.132;6.408;2023-04-25T02:28:59;6.30;99.90
59208;DHT22;44977;53.132;6.408;2023-04-25T02:34:00;6.30;99.90
59208;DHT22;44977;53.132;6.408;2023-04-25T02:39:01;6.30;99.90
59208;DHT22;44977;53.132;6.408;2023-04-25T02:44:03;6.30;99.90
59208;DHT22;44977;53.132;6.408;2023-04-25T02:49:04;6.30;99.90
59208;DHT22;44977;53.132;6.408;2023-04-25T02:54:05;6.30;99.90
59208;DHT22;44977;53.132;6.408;2023-04-25T02:59:06;6.30;99.90
59208;DHT22;44977;53.132;6.408;2023-04-25T03:04:07;6.20;99.90
59208;DHT22;44977;53.132;6.408;2023-04-25T03:09:08;6.20;99.90
59208;DHT22;44977;53.132;6.408;2023-04-25T03:14:09;6.20;99.90
59208;DHT22;44977;53.132;6.408;2023-04-25T03:19:09;6.20;99.90
59208;DHT22;44977;53.132;6.408;2023-04-25T03:24:10;6.20;99.90
59208;DHT22;44977;53.132;6.408;2023-04-25T03:29:13;6.10;99.90
59208;DHT22;44977;53.132;6.408;2023-04-25T03:34:14;6.10;99.90
59208;DHT22;44977;53.132;6.408;2023-04-25T03:39:15;6.10;99.90
59208;DHT22;44977;53.132;6.408;2023-04-25T03:44:16;6.00;99.90
59208;DHT22;44977;53.132;6.408;2023-04-25T03:49:16;6.00;99.90
59208;DHT22;44977;53.132;6.408;2023-04-25T03:54:17;6.00;99.90
59208;DHT22;44977;53.132;6.408;2023-04-25T03:59:18;5.90;99.90
59208;DHT22;44977;53.132;6.408;2023-04-25T04:04:18;5.90;99.90
59208;DHT22;44977;53.132;6.408;2023-04-25T04:09:19;5.80;99.90
59208;DHT22;44977;53.132;6.408;2023-04-25T04:14:20;5.80;99.90
59208;DHT22;44977;53.132;6.408;2023-04-25T04:19:21;5.80;99.90
59208;DHT22;44977;53.132;6.408;2023-04-25T04:24:22;5.70;99.90
59208;DHT22;44977;53.132;6.408;2023-04-25T04:29:22;5.70;99.90
59208;DHT22;44977;53.132;6.408;2023-04-25T04:34:23;5.70;99.90
59208;DHT22;44977;53.132;6.408;2023-04-25T04:39:25;5.60;99.90
59208;DHT22;44977;53.132;6.408;2023-04-25T04:44:26;5.60;99.90
59208;DHT22;44977;53.132;6.408;2023-04-25T04:49:27;5.60;99.90
59208;DHT22;44977;53.132;6.408;2023-04-25T04:54:27;5.60;99.90
59208;DHT22;44977;53.132;6.408;2023-04-25T04:59:28;5.50;99.90
59208;DHT22;44977;53.132;6.408;2023-04-25T05:04:29;5.50;99.90
59208;DHT22;44977;53.132;6.408;2023-04-25T05:09:29;5.50;99.90
59208;DHT22;44977;53.132;6.408;2023-04-25T05:14:30;5.50;99.90
59208;DHT22;44977;53.132;6.408;2023-04-25T05:19:32;5.50;99.90
59208;DHT22;44977;53.132;6.408;2023-04-25T05:24:32;5.50;99.90
59208;DHT22;44977;53.132;6.408;2023-04-25T05:29:33;5.60;99.90
59208;DHT22;44977;53.132;6.408;2023-04-25T05:34:34;5.60;99.90
59208;DHT22;44977;53.132;6.408;2023-04-25T05:39:35;5.70;99.90
59208;DHT22;44977;53.132;6.408;2023-04-25T05:44:35;5.80;99.90
59208;DHT22;44977;53.132;6.408;2023-04-25T05:49:36;5.90;99.90
59208;DHT22;44977;53.132;6.408;2023-04-25T05:54:37;6.00;99.90
59208;DHT22;44977;53.132;6.408;2023-04-25T05:59:37;6.10;99.90
59208;DHT22;44977;53.132;6.408;2023-04-25T06:04:38;6.30;99.90
59208;DHT22;44977;53.132;6.408;2023-04-25T06:09:39;6.40;99.90
59208;DHT22;44977;53.132;6.408;2023-04-25T06:14:41;6.60;99.90
59208;DHT22;44977;53.132;6.408;2023-04-25T06:19:41;6.80;99.90
59208;DHT22;44977;53.132;6.408;2023-04-25T06:24:42;6.90;99.90
59208;DHT22;44977;53.132;6.408;2023-04-25T06:29:43;6.90;99.90
59208;DHT22;44977;53.132;6.408;2023-04-25T06:34:43;6.90;99.90
59208;DHT22;44977;53.132;6.408;2023-04-25T06:39:44;6.90;99.90
59208;DHT22;44977;53.132;6.408;2023-04-25T06:44:45;6.90;99.90
59208;DHT22;44977;53.132;6.408;2023-04-25T06:49:45;7.10;99.90
59208;DHT22;44977;53.132;6.408;2023-04-25T06:54:46;7.30;99.90
59208;DHT22;44977;53.132;6.408;2023-04-25T06:59:47;7.60;99.90
59208;DHT22;44977;53.132;6.408;2023-04-25T07:04:47;7.70;99.90
59208;DHT22;44977;53.132;6.408;2023-04-25T07:09:48;7.90;99.90
59208;DHT22;44977;53.132;6.408;2023-04-25T07:14:49;8.10;99.90
59208;DHT22;44977;53.132;6.408;2023-04-25T07:19:49;8.20;99.90
59208;DHT22;44977;53.132;6.408;2023-04-25T07:24:50;8.40;99.90
59208;DHT22;44977;53.132;6.408;2023-04-25T07:29:51;8.60;99.90
59208;DHT22;44977;53.132;6.408;2023-04-25T07:34:52;8.70;99.90
59208;DHT22;44977;53.132;6.408;2023-04-25T07:39:52;8.70;99.90
59208;DHT22;44977;53.132;6.408;2023-04-25T07:44:53;8.60;99.90
59208;DHT22;44977;53.132;6.408;2023-04-25T07:49:54;8.50;99.90
59208;DHT22;44977;53.132;6.408;2023-04-25T07:54:54;8.50;99.90
59208;DHT22;44977;53.132;6.408;2023-04-25T07:59:55;8.30;99.90
59208;DHT22;44977;53.132;6.408;2023-04-25T08:04:56;8.40;99.90
59208;DHT22;44977;53.132;6.408;2023-04-25T08:09:56;8.60;99.90
59208;DHT22;44977;53.132;6.408;2023-04-25T08:14:57;8.70;99.90
59208;DHT22;44977;53.132;6.408;2023-04-25T08:19:58;9.00;99.90
59208;DHT22;44977;53.132;6.408;2023-04-25T08:24:59;9.00;99.90
59208;DHT22;44977;53.132;6.408;2023-04-25T08:30:00;8.60;99.90
59208;DHT22;44977;53.132;6.408;2023-04-25T08:35:00;8.40;99.90
59208;DHT22;44977;53.132;6.408;2023-04-25T08:40:01;8.60;99.90
59208;DHT22;44977;53.132;6.408;2023-04-25T08:45:08;8.60;99.90
59208;DHT22;44977;53.132;6.408;2023-04-25T08:50:09;8.40;99.90
59208;DHT22;44977;53.132;6.408;2023-04-25T08:55:12;8.20;99.90
59208;DHT22;44977;53.132;6.408;2023-04-25T09:00:13;8.20;99.90
59208;DHT22;44977;53.132;6.408;2023-04-25T09:05:14;8.60;99.90
59208;DHT22;44977;53.132;6.408;2023-04-25T09:10:15;9.00;99.90
59208;DHT22;44977;53.132;6.408;2023-04-25T09:15:16;9.30;99.90
59208;DHT22;44977;53.132;6.408;2023-04-25T09:20:16;9.70;99.90
59208;DHT22;44977;53.132;6.408;2023-04-25T09:25:17;9.90;99.90
59208;DHT22;44977;53.132;6.408;2023-04-25T09:30:18;10.30;99.90
59208;DHT22;44977;53.132;6.408;2023-04-25T09:35:25;10.30;99.90
59208;DHT22;44977;53.132;6.408;2023-04-25T09:40:26;10.00;99.90
59208;DHT22;44977;53.132;6.408;2023-04-25T09:45:29;9.70;99.90
59208;DHT22;44977;53.132;6.408;2023-04-25T09:50:31;9.70;99.90
59208;DHT22;44977;53.132;6.408;2023-04-25T09:55:33;10.00;99.90
59208;DHT22;44977;53.132;6.408;2023-04-25T10:00:34;10.20;99.90
59208;DHT22;44977;53.132;6.408;2023-04-25T10:05:36;10.40;99.90
59208;DHT22;44977;53.132;6.408;2023-04-25T10:10:39;10.60;99.90
59208;DHT22;44977;53.132;6.408;2023-04-25T10:15:41;10.80;99.90
59208;DHT22;44977;53.132;6.408;2023-04-25T10:20:42;11.20;97.60
59208;DHT22;44977;53.132;6.408;2023-04-25T10:25:43;11.30;93.30
59208;DHT22;44977;53.132;6.408;2023-04-25T10:31:10;11.60;93.50
59208;DHT22;44977;53.132;6.408;2023-04-25T10:36:24;11.60;93.40
59208;DHT22;44977;53.132;6.408;2023-04-25T10:41:27;11.40;89.50
59208;DHT22;44977;53.132;6.408;2023-04-25T10:46:29;11.30;89.40
59208;DHT22;44977;53.132;6.408;2023-04-25T10:51:32;11.40;89.00
59208;DHT22;44977;53.132;6.408;2023-04-25T10:56:42;11.30;90.00
59208;DHT22;44977;53.132;6.408;2023-04-25T11:01:56;11.00;90.90
59208;DHT22;44977;53.132;6.408;2023-04-25T11:12:04;10.50;94.30
59208;DHT22;44977;53.132;6.408;2023-04-25T11:17:05;10.80;95.90
59208;DHT22;44977;53.132;6.408;2023-04-25T11:22:06;11.20;91.60
59208;DHT22;44977;53.132;6.408;2023-04-25T11:27:08;11.50;90.40
59208;DHT22;44977;53.132;6.408;2023-04-25T11:32:09;11.60;89.40
59208;DHT22;44977;53.132;6.408;2023-04-25T11:37:10;11.80;90.20
59208;DHT22;44977;53.132;6.408;2023-04-25T11:42:13;11.90;83.80
59208;DHT22;44977;53.132;6.408;2023-04-25T11:47:13;11.80;84.30
59208;DHT22;44977;53.132;6.408;2023-04-25T11:52:14;11.70;82.00
59208;DHT22;44977;53.132;6.408;2023-04-25T11:57:19;11.70;82.00
59208;DHT22;44977;53.132;6.408;2023-04-25T12:02:25;11.90;82.00
59208;DHT22;44977;53.132;6.408;2023-04-25T12:07:30;12.00;81.80
59208;DHT22;44977;53.132;6.408;2023-04-25T12:12:35;11.90;83.70
59208;DHT22;44977;53.132;6.408;2023-04-25T12:17:36;11.80;83.60
59208;DHT22;44977;53.132;6.408;2023-04-25T12:22:40;11.70;85.40
59208;DHT22;44977;53.132;6.408;2023-04-25T12:27:45;11.70;84.60
59208;DHT22;44977;53.132;6.408;2023-04-25T12:32:45;11.70;88.40
59208;DHT22;44977;53.132;6.408;2023-04-25T12:37:46;11.50;90.60
59208;DHT22;44977;53.132;6.408;2023-04-25T12:42:47;11.30;90.70
59208;DHT22;44977;53.132;6.408;2023-04-25T12:47:48;11.10;90.10
59208;DHT22;44977;53.132;6.408;2023-04-25T12:52:48;10.90;91.80
59208;DHT22;44977;53.132;6.408;2023-04-25T12:57:49;10.90;94.60
59208;DHT22;44977;53.132;6.408;2023-04-25T13:02:50;10.90;93.50
59208;DHT22;44977;53.132;6.408;2023-04-25T13:07:51;10.70;89.10
59208;DHT22;44977;53.132;6.408;2023-04-25T13:12:51;10.50;90.10
59208;DHT22;44977;53.132;6.408;2023-04-25T13:17:52;10.40;86.30
59208;DHT22;44977;53.132;6.408;2023-04-25T13:22:53;10.60;88.90
59208;DHT22;44977;53.132;6.408;2023-04-25T13:27:53;10.70;90.30
59208;DHT22;44977;53.132;6.408;2023-04-25T13:32:54;10.80;91.50
59208;DHT22;44977;53.132;6.408;2023-04-25T13:37:57;10.90;90.80
59208;DHT22;44977;53.132;6.408;2023-04-25T13:42:58;10.70;90.30
59208;DHT22;44977;53.132;6.408;2023-04-25T13:47:59;10.40;88.40
59208;DHT22;44977;53.132;6.408;2023-04-25T13:53:00;10.20;90.00
59208;DHT22;44977;53.132;6.408;2023-04-25T13:58:01;10.00;91.40
59208;DHT22;44977;53.132;6.408;2023-04-25T14:03:07;9.90;91.80
59208;DHT22;44977;53.132;6.408;2023-04-25T14:08:09;9.90;91.00
59208;DHT22;44977;53.132;6.408;2023-04-25T14:13:09;10.00;92.50
59208;DHT22;44977;53.132;6.408;2023-04-25T14:18:10;10.10;90.40
59208;DHT22;44977;53.132;6.408;2023-04-25T14:23:11;10.10;89.40
59208;DHT22;44977;53.132;6.408;2023-04-25T14:28:11;10.10;89.90
59208;DHT22;44977;53.132;6.408;2023-04-25T14:33:12;10.10;88.20
59208;DHT22;44977;53.132;6.408;2023-04-25T14:38:14;10.20;89.20
59208;DHT22;44977;53.132;6.408;2023-04-25T14:43:15;10.10;89.00
59208;DHT22;44977;53.132;6.408;2023-04-25T14:48:17;10.20;89.90
59208;DHT22;44977;53.132;6.408;2023-04-25T14:53:19;10.20;87.00
59208;DHT22;44977;53.132;6.408;2023-04-25T14:58:20;10.60;88.10
59208;DHT22;44977;53.132;6.408;2023-04-25T15:03:20;10.60;88.50
59208;DHT22;44977;53.132;6.408;2023-04-25T15:08:21;10.40;90.70
59208;DHT22;44977;53.132;6.408;2023-04-25T15:13:22;10.30;93.10
59208;DHT22;44977;53.132;6.408;2023-04-25T15:18:23;10.40;92.90
59208;DHT22;44977;53.132;6.408;2023-04-25T15:23:24;10.60;91.50
59208;DHT22;44977;53.132;6.408;2023-04-25T15:28:24;10.60;90.00
59208;DHT22;44977;53.132;6.408;2023-04-25T15:33:25;10.70;89.90
59208;DHT22;44977;53.132;6.408;2023-04-25T15:38:26;10.70;88.60
59208;DHT22;44977;53.132;6.408;2023-04-25T15:43:27;10.80;90.10
59208;DHT22;44977;53.132;6.408;2023-04-25T15:48:27;10.60;90.20
59208;DHT22;44977;53.132;6.408;2023-04-25T15:53:28;10.40;86.60
59208;DHT22;44977;53.132;6.408;2023-04-25T15:58:29;10.20;87.30
59208;DHT22;44977;53.132;6.408;2023-04-25T16:03:31;10.30;88.70
59208;DHT22;44977;53.132;6.408;2023-04-25T16:08:31;10.20;84.80
59208;DHT22;44977;53.132;6.408;2023-04-25T16:13:35;10.20;84.50
59208;DHT22;44977;53.132;6.408;2023-04-25T16:18:36;10.20;84.80
59208;DHT22;44977;53.132;6.408;2023-04-25T16:23:36;10.00;86.90
59208;DHT22;44977;53.132;6.408;2023-04-25T16:28:37;9.80;87.20
59208;DHT22;44977;53.132;6.408;2023-04-25T16:33:38;9.60;90.00
59208;DHT22;44977;53.132;6.408;2023-04-25T16:38:39;9.50;90.70
59208;DHT22;44977;53.132;6.408;2023-04-25T16:43:39;9.60;91.10
59208;DHT22;44977;53.132;6.408;2023-04-25T16:48:40;9.60;90.60
59208;DHT22;44977;53.132;6.408;2023-04-25T16:53:42;9.50;91.00
59208;DHT22;44977;53.132;6.408;2023-04-25T16:58:43;9.40;90.20
59208;DHT22;44977;53.132;6.408;2023-04-25T17:03:43;9.30;90.90
59208;DHT22;44977;53.132;6.408;2023-04-25T17:08:44;9.20;91.30
59208;DHT22;44977;53.132;6.408;2023-04-25T17:13:45;9.00;92.00
59208;DHT22;44977;53.132;6.408;2023-04-25T17:18:46;9.00;92.70
59208;DHT22;44977;53.132;6.408;2023-04-25T17:23:46;9.00;94.20
59208;DHT22;44977;53.132;6.408;2023-04-25T17:28:47;8.90;95.20
59208;DHT22;44977;53.132;6.408;2023-04-25T17:33:48;8.60;96.20
59208;DHT22;44977;53.132;6.408;2023-04-25T17:38:50;8.40;95.90
59208;DHT22;44977;53.132;6.408;2023-04-25T17:43:51;8.20;95.10
59208;DHT22;44977;53.132;6.408;2023-04-25T17:48:51;8.10;95.30
59208;DHT22;44977;53.132;6.408;2023-04-25T17:53:52;8.10;96.70
59208;DHT22;44977;53.132;6.408;2023-04-25T17:58:53;8.00;97.00
59208;DHT22;44977;53.132;6.408;2023-04-25T18:03:54;8.00;97.80
59208;DHT22;44977;53.132;6.408;2023-04-25T18:08:54;8.00;98.60
59208;DHT22;44977;53.132;6.408;2023-04-25T18:13:56;7.90;99.70
59208;DHT22;44977;53.132;6.408;2023-04-25T18:18:57;7.90;99.90
59208;DHT22;44977;53.132;6.408;2023-04-25T18:24:05;7.70;99.90
59208;DHT22;44977;53.132;6.408;2023-04-25T18:29:12;7.70;99.70
59208;DHT22;44977;53.132;6.408;2023-04-25T18:34:13;7.60;98.90
59208;DHT22;44977;53.132;6.408;2023-04-25T18:39:15;7.60;98.60
59208;DHT22;44977;53.132;6.408;2023-04-25T18:44:16;7.40;99.90
59208;DHT22;44977;53.132;6.408;2023-04-25T18:49:17;7.30;99.90
59208;DHT22;44977;53.132;6.408;2023-04-25T18:54:18;7.20;99.90
59208;DHT22;44977;53.132;6.408;2023-04-25T18:59:19;7.20;99.90
59208;DHT22;44977;53.132;6.408;2023-04-25T19:04:20;7.20;99.90
59208;DHT22;44977;53.132;6.408;2023-04-25T19:09:21;7.10;99.90
59208;DHT22;44977;53.132;6.408;2023-04-25T19:14:21;7.00;99.90
59208;DHT22;44977;53.132;6.408;2023-04-25T19:19:22;6.90;99.90
59208;DHT22;44977;53.132;6.408;2023-04-25T19:24:23;6.90;99.90
59208;DHT22;44977;53.132;6.408;2023-04-25T19:29:24;6.80;99.90
59208;DHT22;44977;53.132;6.408;2023-04-25T19:34:24;6.80;99.90
59208;DHT22;44977;53.132;6.408;2023-04-25T19:39:25;6.70;99.90
59208;DHT22;44977;53.132;6.408;2023-04-25T19:44:26;6.60;99.90
59208;DHT22;44977;53.132;6.408;2023-04-25T19:49:27;6.60;99.90
59208;DHT22;44977;53.132;6.408;2023-04-25T19:54:27;6.50;99.90
59208;DHT22;44977;53.132;6.408;2023-04-25T19:59:28;6.40;99.90
59208;DHT22;44977;53.132;6.408;2023-04-25T20:04:30;6.30;99.90
59208;DHT22;44977;53.132;6.408;2023-04-25T20:09:30;6.20;99.90
59208;DHT22;44977;53.132;6.408;2023-04-25T20:14:31;6.10;99.90
59208;DHT22;44977;53.132;6.408;2023-04-25T20:19:32;6.10;99.90
59208;DHT22;44977;53.132;6.408;2023-04-25T20:24:33;6.00;99.90
59208;DHT22;44977;53.132;6.408;2023-04-25T20:29:34;5.90;99.90
59208;DHT22;44977;53.132;6.408;2023-04-25T20:34:35;5.80;99.90
59208;DHT22;44977;53.132;6.408;2023-04-25T20:39:36;5.80;99.90
59208;DHT22;44977;53.132;6.408;2023-04-25T20:44:37;5.70;99.90
59208;DHT22;44977;53.132;6.408;2023-04-25T20:49:40;5.60;99.90
59208;DHT22;44977;53.132;6.408;2023-04-25T20:54:41;5.60;99.90
59208;DHT22;44977;53.132;6.408;2023-04-25T20:59:42;5.50;99.90
59208;DHT22;44977;53.132;6.408;2023-04-25T21:04:42;5.50;99.90
59208;DHT22;44977;53.132;6.408;2023-04-25T21:09:46;5.40;99.90
59208;DHT22;44977;53.132;6.408;2023-04-25T21:14:47;5.40;99.90
59208;DHT22;44977;53.132;6.408;2023-04-25T21:19:47;5.30;99.90
59208;DHT22;44977;53.132;6.408;2023-04-25T21:24:51;5.30;99.90
59208;DHT22;44977;53.132;6.408;2023-04-25T21:29:53;5.20;99.90
59208;DHT22;44977;53.132;6.408;2023-04-25T21:34:54;5.20;99.90
59208;DHT22;44977;53.132;6.408;2023-04-25T21:39:54;5.10;99.90
59208;DHT22;44977;53.132;6.408;2023-04-25T21:44:55;5.10;99.90
59208;DHT22;44977;53.132;6.408;2023-04-25T21:49:56;5.00;99.90
59208;DHT22;44977;53.132;6.408;2023-04-25T21:54:57;5.00;99.90
59208;DHT22;44977;53.132;6.408;2023-04-25T21:59:57;5.00;99.90
59208;DHT22;44977;53.132;6.408;2023-04-25T22:04:58;5.00;99.90
59208;DHT22;44977;53.132;6.408;2023-04-25T22:09:59;5.00;99.90
59208;DHT22;44977;53.132;6.408;2023-04-25T22:14:59;5.00;99.90
59208;DHT22;44977;53.132;6.408;2023-04-25T22:20:00;5.10;99.90
59208;DHT22;44977;53.132;6.408;2023-04-25T22:25:01;5.10;99.90
59208;DHT22;44977;53.132;6.408;2023-04-25T22:30:02;5.10;99.90
59208;DHT22;44977;53.132;6.408;2023-04-25T22:35:05;5.10;99.90
59208;DHT22;44977;53.132;6.408;2023-04-25T22:40:06;5.00;99.90
59208;DHT22;44977;53.132;6.408;2023-04-25T22:45:10;5.00;99.90
59208;DHT22;44977;53.132;6.408;2023-04-25T22:50:11;4.90;99.90
59208;DHT22;44977;53.132;6.408;2023-04-25T22:55:12;4.80;99.90
59208;DHT22;44977;53.132;6.408;2023-04-25T23:00:13;4.80;99.90
59208;DHT22;44977;53.132;6.408;2023-04-25T23:05:19;4.70;99.90
59208;DHT22;44977;53.132;6.408;2023-04-25T23:10:19;4.60;99.90
59208;DHT22;44977;53.132;6.408;2023-04-25T23:15:20;4.60;99.90
59208;DHT22;44977;53.132;6.408;2023-04-25T23:20:22;4.50;99.90
59208;DHT22;44977;53.132;6.408;2023-04-25T23:25:23;4.40;99.90
59208;DHT22;44977;53.132;6.408;2023-04-25T23:30:24;4.40;99.90
59208;DHT22;44977;53.132;6.408;2023-04-25T23:35:25;4.40;99.90
59208;DHT22;44977;53.132;6.408;2023-04-25T23:40:27;4.40;99.90
59208;DHT22;44977;53.132;6.408;2023-04-25T23:45:28;4.40;99.90
59208;DHT22;44977;53.132;6.408;2023-04-25T23:50:29;4.40;99.90
59208;DHT22;44977;53.132;6.408;2023-04-25T23:55:30;4.40;99.90
